createdAt,value
2022-09-20T00:00:28.291Z,2.20
2022-09-20T00:01:28.436Z,2.20
2022-09-20T00:02:28.281Z,2.30
2022-09-20T00:03:28.254Z,2.10
2022-09-20T00:04:28.263Z,2.30
2022-09-20T00:05:28.256Z,2.60
2022-09-20T00:06:28.220Z,2.50
2022-09-20T00:07:28.204Z,2.20
2022-09-20T00:08:28.198Z,2.80
2022-09-20T00:09:28.205Z,2.50
2022-09-20T00:10:28.176Z,3.00
2022-09-20T00:11:28.162Z,2.50
2022-09-20T00:12:28.152Z,2.50
2022-09-20T00:13:28.163Z,2.30
2022-09-20T00:14:28.149Z,2.30
2022-09-20T00:15:28.115Z,3.00
2022-09-20T00:16:28.190Z,2.70
2022-09-20T00:17:28.099Z,2.40
2022-09-20T00:18:28.107Z,2.80
2022-09-20T00:19:28.340Z,2.70
2022-09-20T00:20:28.058Z,2.60
2022-09-20T00:21:28.050Z,2.40
2022-09-20T00:22:28.036Z,2.50
2022-09-20T00:23:28.027Z,2.60
2022-09-20T00:24:28.034Z,2.60
2022-09-20T00:25:28.004Z,2.40
2022-09-20T00:26:27.994Z,2.60
2022-09-20T00:27:27.978Z,2.40
2022-09-20T00:28:27.972Z,2.60
2022-09-20T00:29:27.975Z,2.70
2022-09-20T00:30:27.948Z,2.60
2022-09-20T00:31:28.029Z,2.30
2022-09-20T00:32:27.923Z,2.40
2022-09-20T00:33:27.913Z,2.70
2022-09-20T00:34:27.940Z,2.40
2022-09-20T00:35:27.887Z,2.60
2022-09-20T00:36:27.881Z,2.40
2022-09-20T00:37:27.867Z,2.70
2022-09-20T00:38:27.860Z,2.80
2022-09-20T00:39:27.867Z,2.80
2022-09-20T00:40:27.894Z,2.80
2022-09-20T00:41:27.821Z,2.60
2022-09-20T00:42:27.812Z,2.40
2022-09-20T00:43:27.804Z,2.30
2022-09-20T00:44:27.816Z,2.20
2022-09-20T00:45:27.907Z,2.60
2022-09-20T00:46:27.763Z,2.60
2022-09-20T00:47:27.752Z,2.90
2022-09-20T00:48:27.743Z,2.90
2022-09-20T00:49:27.751Z,2.70
2022-09-20T00:50:27.756Z,2.60
2022-09-20T00:51:27.710Z,2.60
2022-09-20T00:52:27.697Z,3.00
2022-09-20T00:53:27.687Z,2.90
2022-09-20T00:54:27.673Z,2.50
2022-09-20T00:55:27.686Z,3.10
2022-09-20T00:56:27.649Z,2.80
2022-09-20T00:57:27.638Z,2.80
2022-09-20T00:58:27.627Z,3.10
2022-09-20T00:59:27.643Z,2.50
2022-09-20T01:00:27.636Z,3.00
2022-09-20T01:01:27.664Z,2.80
2022-09-20T01:02:27.624Z,2.60
2022-09-20T01:03:27.569Z,3.20
2022-09-20T01:04:27.642Z,3.20
2022-09-20T01:05:27.560Z,2.90
2022-09-20T01:06:27.627Z,2.80
2022-09-20T01:07:27.523Z,2.80
2022-09-20T01:08:27.539Z,2.60
2022-09-20T01:09:27.500Z,2.50
2022-09-20T01:10:27.519Z,2.70
2022-09-20T01:11:27.506Z,2.50
2022-09-20T01:12:27.476Z,2.70
2022-09-20T01:13:27.462Z,2.80
2022-09-20T01:14:27.486Z,3.10
2022-09-20T01:15:27.434Z,2.60
2022-09-20T01:16:27.508Z,2.80
2022-09-20T01:17:27.410Z,2.60
2022-09-20T01:18:27.400Z,2.70
2022-09-20T01:19:27.387Z,2.60
2022-09-20T01:20:27.378Z,2.70
2022-09-20T01:21:27.387Z,3.10
2022-09-20T01:22:27.374Z,2.50
2022-09-20T01:23:27.346Z,2.80
2022-09-20T01:24:27.347Z,2.80
2022-09-20T01:25:27.346Z,2.40
2022-09-20T01:26:27.309Z,2.80
2022-09-20T01:27:27.297Z,2.90
2022-09-20T01:28:27.296Z,2.50
2022-09-20T01:29:27.275Z,2.70
2022-09-20T01:30:27.289Z,2.90
2022-09-20T01:31:27.313Z,2.60
2022-09-20T01:32:27.243Z,3.60
2022-09-20T01:33:27.231Z,3.00
2022-09-20T01:34:27.219Z,2.90
2022-09-20T01:35:27.229Z,3.10
2022-09-20T01:36:27.250Z,2.70
2022-09-20T01:37:27.197Z,2.80
2022-09-20T01:38:27.190Z,3.40
2022-09-20T01:39:27.162Z,2.70
2022-09-20T01:40:27.255Z,2.90
2022-09-20T01:41:27.139Z,2.60
2022-09-20T01:42:27.160Z,2.70
2022-09-20T01:43:27.120Z,2.70
2022-09-20T01:44:27.110Z,2.70
2022-09-20T01:45:27.174Z,2.90
2022-09-20T01:46:27.084Z,3.10
2022-09-20T01:47:27.088Z,3.00
2022-09-20T01:48:27.064Z,2.80
2022-09-20T01:49:27.048Z,2.40
2022-09-20T01:50:27.059Z,2.60
2022-09-20T01:51:27.027Z,2.90
2022-09-20T01:52:27.021Z,2.60
2022-09-20T01:53:27.028Z,3.00
2022-09-20T01:54:27.009Z,2.70
2022-09-20T01:55:26.983Z,2.80
2022-09-20T01:56:26.968Z,2.30
2022-09-20T01:57:27.661Z,2.00
2022-09-20T01:58:26.988Z,2.70
2022-09-20T01:59:27.281Z,2.40
2022-09-20T02:00:26.944Z,2.30
2022-09-20T02:01:27.039Z,2.30
2022-09-20T02:02:26.972Z,2.60
2022-09-20T02:03:26.890Z,2.50
2022-09-20T02:04:26.877Z,2.50
2022-09-20T02:05:26.867Z,2.70
2022-09-20T02:06:26.878Z,2.20
2022-09-20T02:07:26.849Z,2.20
2022-09-20T02:08:26.854Z,2.30
2022-09-20T02:09:26.827Z,2.30
2022-09-20T02:10:26.829Z,2.20
2022-09-20T02:11:26.833Z,2.60
2022-09-20T02:12:30.384Z,2.70
2022-09-20T02:13:27.777Z,2.70
2022-09-20T02:14:26.772Z,2.30
2022-09-20T02:15:26.756Z,2.50
2022-09-20T02:16:26.795Z,2.60
2022-09-20T02:17:26.750Z,2.40
2022-09-20T02:18:26.719Z,2.30
2022-09-20T02:19:26.712Z,2.30
2022-09-20T02:20:27.019Z,2.30
2022-09-20T02:21:26.708Z,2.30
2022-09-20T02:22:26.676Z,3.00
2022-09-20T02:23:26.665Z,2.70
2022-09-20T02:24:26.651Z,2.70
2022-09-20T02:25:26.641Z,2.70
2022-09-20T02:26:26.668Z,2.80
2022-09-20T02:27:26.639Z,2.80
2022-09-20T02:28:26.608Z,2.50
2022-09-20T02:29:26.630Z,3.10
2022-09-20T02:30:26.607Z,2.80
2022-09-20T02:31:26.666Z,3.10
2022-09-20T02:32:26.575Z,2.70
2022-09-20T02:33:26.562Z,2.70
2022-09-20T02:34:26.730Z,2.50
2022-09-20T02:35:26.538Z,2.70
2022-09-20T02:36:26.523Z,2.10
2022-09-20T02:37:26.507Z,2.90
2022-09-20T02:38:26.495Z,2.60
2022-09-20T02:39:26.511Z,2.50
2022-09-20T02:40:26.532Z,2.90
2022-09-20T02:41:26.485Z,2.70
2022-09-20T02:42:26.491Z,2.80
2022-09-20T02:43:26.439Z,2.60
2022-09-20T02:44:26.428Z,2.90
2022-09-20T02:45:26.455Z,2.80
2022-09-20T02:46:26.405Z,2.70
2022-09-20T02:47:26.414Z,2.90
2022-09-20T02:48:26.378Z,2.70
2022-09-20T02:49:26.371Z,2.80
2022-09-20T02:50:26.360Z,3.30
2022-09-20T02:51:26.346Z,2.80
2022-09-20T02:52:26.388Z,2.90
2022-09-20T02:53:26.325Z,3.10
2022-09-20T02:54:26.345Z,3.20
2022-09-20T02:55:26.355Z,2.90
2022-09-20T02:56:26.290Z,3.00
2022-09-20T02:57:26.309Z,3.20
2022-09-20T02:58:26.286Z,3.30
2022-09-20T02:59:26.262Z,3.20
2022-09-20T03:00:26.243Z,3.70
2022-09-20T03:01:26.315Z,3.00
2022-09-20T03:02:26.249Z,3.20
2022-09-20T03:03:26.233Z,3.30
2022-09-20T03:04:26.199Z,3.50
2022-09-20T03:05:26.187Z,3.90
2022-09-20T03:06:26.174Z,3.30
2022-09-20T03:07:26.190Z,3.90
2022-09-20T03:08:26.153Z,3.50
2022-09-20T03:09:26.145Z,3.40
2022-09-20T03:10:26.154Z,3.50
2022-09-20T03:11:26.121Z,3.40
2022-09-20T03:12:26.115Z,3.40
2022-09-20T03:13:26.097Z,3.80
2022-09-20T03:14:26.119Z,3.50
2022-09-20T03:15:26.073Z,3.20
2022-09-20T03:16:26.140Z,4.00
2022-09-20T03:17:26.053Z,3.50
2022-09-20T03:18:26.038Z,3.40
2022-09-20T03:19:26.051Z,3.20
2022-09-20T03:20:26.015Z,3.50
2022-09-20T03:21:26.010Z,3.50
2022-09-20T03:22:25.996Z,3.50
2022-09-20T03:23:25.982Z,3.10
2022-09-20T03:24:26.030Z,3.10
2022-09-20T03:25:26.081Z,3.60
2022-09-20T03:26:25.963Z,3.50
2022-09-20T03:27:25.937Z,3.20
2022-09-20T03:28:25.928Z,3.20
2022-09-20T03:29:25.915Z,3.20
2022-09-20T03:30:25.944Z,3.60
2022-09-20T03:31:25.974Z,3.30
2022-09-20T03:32:25.882Z,3.40
2022-09-20T03:33:25.889Z,3.70
2022-09-20T03:34:25.859Z,3.40
2022-09-20T03:35:25.866Z,3.10
2022-09-20T03:36:25.833Z,3.60
2022-09-20T03:37:25.827Z,3.30
2022-09-20T03:38:25.826Z,3.60
2022-09-20T03:39:25.805Z,3.90
2022-09-20T03:40:25.889Z,3.10
2022-09-20T03:41:25.780Z,3.70
2022-09-20T03:42:25.776Z,3.70
2022-09-20T03:43:25.759Z,3.40
2022-09-20T03:44:25.766Z,3.40
2022-09-20T03:45:25.928Z,3.30
2022-09-20T03:46:25.751Z,3.60
2022-09-20T03:47:25.820Z,3.30
2022-09-20T03:48:25.697Z,3.50
2022-09-20T03:49:25.688Z,3.00
2022-09-20T03:50:25.722Z,3.30
2022-09-20T03:51:28.077Z,3.60
2022-09-20T03:52:25.654Z,3.50
2022-09-20T03:53:25.650Z,3.40
2022-09-20T03:54:25.696Z,3.30
2022-09-20T03:55:25.656Z,3.60
2022-09-20T03:56:25.611Z,3.80
2022-09-20T03:57:25.600Z,4.00
2022-09-20T03:58:25.589Z,3.60
2022-09-20T03:59:25.604Z,3.30
2022-09-20T04:00:25.564Z,4.00
2022-09-20T04:01:25.624Z,4.30
2022-09-20T04:02:25.650Z,4.20
2022-09-20T04:03:25.529Z,3.50
2022-09-20T04:04:25.517Z,3.80
2022-09-20T04:05:25.508Z,3.60
2022-09-20T04:06:25.494Z,3.80
2022-09-20T04:07:25.594Z,3.90
2022-09-20T04:08:25.472Z,4.00
2022-09-20T04:09:25.484Z,3.70
2022-09-20T04:10:25.452Z,3.90
2022-09-20T04:11:25.439Z,3.60
2022-09-20T04:12:25.456Z,3.80
2022-09-20T04:13:25.419Z,4.00
2022-09-20T04:14:25.405Z,4.10
2022-09-20T04:15:25.391Z,4.30
2022-09-20T04:16:25.450Z,4.10
2022-09-20T04:17:25.395Z,4.00
2022-09-20T04:18:25.382Z,4.30
2022-09-20T04:19:27.629Z,4.10
2022-09-20T04:20:26.362Z,4.10
2022-09-20T04:21:25.329Z,4.40
2022-09-20T04:22:25.317Z,3.80
2022-09-20T04:23:25.376Z,3.60
2022-09-20T04:24:25.292Z,3.80
2022-09-20T04:25:25.310Z,4.50
2022-09-20T04:26:25.276Z,3.90
2022-09-20T04:27:25.255Z,4.00
2022-09-20T04:28:25.250Z,3.50
2022-09-20T04:29:25.235Z,4.50
2022-09-20T04:30:25.225Z,4.00
2022-09-20T04:31:25.265Z,3.80
2022-09-20T04:32:25.287Z,4.00
2022-09-20T04:33:25.193Z,4.20
2022-09-20T04:34:25.199Z,3.70
2022-09-20T04:35:25.166Z,4.40
2022-09-20T04:36:25.335Z,4.00
2022-09-20T04:37:25.149Z,4.00
2022-09-20T04:38:25.132Z,4.10
2022-09-20T04:39:25.126Z,4.40
2022-09-20T04:40:25.188Z,4.30
2022-09-20T04:41:25.150Z,4.80
2022-09-20T04:42:25.089Z,4.30
2022-09-20T04:43:25.081Z,4.10
2022-09-20T04:44:25.070Z,4.30
2022-09-20T04:45:25.098Z,3.90
2022-09-20T04:46:25.076Z,4.00
2022-09-20T04:47:25.031Z,3.70
2022-09-20T04:48:25.027Z,4.10
2022-09-20T04:49:25.009Z,4.10
2022-09-20T04:50:25.033Z,4.30
2022-09-20T04:51:24.986Z,4.00
2022-09-20T04:52:24.993Z,4.30
2022-09-20T04:53:24.962Z,4.20
2022-09-20T04:54:25.014Z,3.80
2022-09-20T04:55:24.938Z,4.00
2022-09-20T04:56:24.930Z,3.80
2022-09-20T04:57:24.916Z,4.10
2022-09-20T04:58:24.903Z,4.50
2022-09-20T04:59:24.915Z,4.00
2022-09-20T05:00:24.881Z,4.10
2022-09-20T05:01:27.419Z,3.70
2022-09-20T05:02:24.984Z,4.20
2022-09-20T05:03:24.963Z,4.30
2022-09-20T05:04:24.835Z,4.10
2022-09-20T05:05:24.822Z,4.40
2022-09-20T05:06:24.856Z,4.20
2022-09-20T05:07:24.801Z,3.90
2022-09-20T05:08:24.812Z,4.40
2022-09-20T05:09:24.788Z,4.10
2022-09-20T05:10:24.768Z,4.50
2022-09-20T05:11:24.757Z,4.20
2022-09-20T05:12:24.747Z,4.60
2022-09-20T05:13:24.756Z,3.60
2022-09-20T05:14:24.878Z,4.40
2022-09-20T05:15:24.720Z,4.30
2022-09-20T05:16:24.800Z,4.10
2022-09-20T05:17:25.236Z,4.20
2022-09-20T05:18:24.680Z,4.70
2022-09-20T05:19:24.667Z,4.30
2022-09-20T05:20:24.655Z,4.00
2022-09-20T05:21:24.665Z,4.00
2022-09-20T05:22:24.648Z,4.60
2022-09-20T05:23:24.621Z,4.00
2022-09-20T05:24:24.619Z,4.80
2022-09-20T05:25:24.674Z,4.40
2022-09-20T05:26:24.611Z,4.40
2022-09-20T05:27:24.594Z,4.30
2022-09-20T05:28:24.567Z,4.70
2022-09-20T05:29:24.556Z,4.50
2022-09-20T05:30:24.541Z,4.70
2022-09-20T05:31:24.563Z,4.40
2022-09-20T05:32:24.520Z,4.50
2022-09-20T05:33:24.511Z,4.60
2022-09-20T05:34:24.502Z,4.50
2022-09-20T05:35:24.483Z,4.70
2022-09-20T05:36:24.501Z,4.90
2022-09-20T05:37:24.787Z,4.40
2022-09-20T05:38:24.500Z,4.60
2022-09-20T05:39:24.445Z,4.40
2022-09-20T05:40:24.449Z,4.30
2022-09-20T05:41:24.419Z,4.40
2022-09-20T05:42:24.437Z,4.40
2022-09-20T05:43:24.408Z,4.50
2022-09-20T05:44:24.389Z,4.20
2022-09-20T05:45:24.371Z,4.20
2022-09-20T05:46:24.360Z,4.10
2022-09-20T05:47:24.464Z,4.30
2022-09-20T05:48:24.339Z,3.90
2022-09-20T05:49:24.326Z,4.20
2022-09-20T05:50:24.315Z,4.10
2022-09-20T05:51:24.304Z,4.30
2022-09-20T05:52:24.313Z,4.30
2022-09-20T05:53:24.308Z,4.50
2022-09-20T05:54:24.289Z,4.90
2022-09-20T05:55:24.261Z,4.20
2022-09-20T05:56:24.249Z,4.30
2022-09-20T05:57:24.256Z,4.20
2022-09-20T05:58:24.243Z,4.10
2022-09-20T05:59:24.318Z,4.40
2022-09-20T06:00:24.231Z,4.70
2022-09-20T06:01:24.263Z,4.50
2022-09-20T06:02:24.266Z,4.10
2022-09-20T06:03:24.190Z,4.80
2022-09-20T06:04:24.161Z,5.30
2022-09-20T06:05:24.146Z,5.20
2022-09-20T06:06:24.133Z,5.10
2022-09-20T06:07:24.121Z,4.70
2022-09-20T06:08:24.113Z,4.60
2022-09-20T06:09:24.118Z,4.60
2022-09-20T06:10:24.135Z,4.70
2022-09-20T06:11:24.095Z,4.80
2022-09-20T06:12:24.090Z,4.70
2022-09-20T06:13:24.171Z,4.90
2022-09-20T06:14:24.181Z,4.60
2022-09-20T06:15:24.217Z,4.80
2022-09-20T06:16:24.039Z,5.40
2022-09-20T06:17:24.010Z,4.90
2022-09-20T06:18:24.080Z,4.70
2022-09-20T06:19:24.003Z,4.80
2022-09-20T06:20:24.010Z,5.10
2022-09-20T06:21:23.963Z,4.60
2022-09-20T06:22:24.005Z,4.60
2022-09-20T06:23:24.004Z,4.80
2022-09-20T06:24:23.938Z,4.80
2022-09-20T06:25:23.985Z,4.70
2022-09-20T06:26:23.932Z,4.50
2022-09-20T06:27:23.926Z,4.80
2022-09-20T06:28:24.079Z,4.90
2022-09-20T06:29:24.021Z,4.90
2022-09-20T06:30:23.980Z,4.60
2022-09-20T06:31:23.894Z,4.80
2022-09-20T06:32:23.987Z,4.80
2022-09-20T06:33:24.009Z,4.60
2022-09-20T06:34:23.988Z,4.30
2022-09-20T06:35:23.846Z,4.80
2022-09-20T06:36:23.793Z,4.90
2022-09-20T06:37:23.856Z,4.50
2022-09-20T06:38:23.789Z,4.30
2022-09-20T06:39:23.757Z,4.50
2022-09-20T06:40:23.811Z,4.70
2022-09-20T06:41:23.758Z,4.20
2022-09-20T06:42:27.039Z,5.00
2022-09-20T06:43:23.714Z,4.70
2022-09-20T06:44:23.707Z,4.90
2022-09-20T06:45:23.847Z,4.50
2022-09-20T06:46:23.690Z,5.30
2022-09-20T06:47:23.697Z,4.70
2022-09-20T06:48:23.658Z,4.80
2022-09-20T06:49:23.752Z,4.60
2022-09-20T06:50:23.658Z,4.80
2022-09-20T06:51:23.653Z,4.80
2022-09-20T06:52:23.614Z,5.50
2022-09-20T06:53:23.598Z,5.20
2022-09-20T06:54:23.593Z,5.00
2022-09-20T06:55:28.436Z,4.70
2022-09-20T06:56:24.567Z,5.00
2022-09-20T06:57:23.555Z,4.40
2022-09-20T06:58:23.560Z,4.50
2022-09-20T06:59:23.541Z,5.10
2022-09-20T07:00:23.540Z,4.40
2022-09-20T07:01:30.316Z,4.50
2022-09-20T07:02:24.527Z,4.10
2022-09-20T07:03:23.484Z,3.60
2022-09-20T07:04:23.476Z,4.10
2022-09-20T07:05:23.485Z,4.20
2022-09-20T07:06:23.452Z,4.00
2022-09-20T07:07:23.440Z,4.00
2022-09-20T07:08:23.430Z,3.60
2022-09-20T07:09:23.419Z,4.00
2022-09-20T07:10:23.410Z,3.90
2022-09-20T07:11:23.419Z,4.50
2022-09-20T07:12:23.390Z,3.80
2022-09-20T07:13:23.372Z,4.00
2022-09-20T07:14:23.382Z,3.40
2022-09-20T07:15:23.348Z,3.70
2022-09-20T07:16:23.409Z,4.00
2022-09-20T07:17:23.327Z,4.00
2022-09-20T07:18:23.320Z,4.30
2022-09-20T07:19:23.317Z,4.50
2022-09-20T07:20:23.295Z,4.40
2022-09-20T07:21:23.303Z,3.70
2022-09-20T07:22:23.273Z,3.80
2022-09-20T07:23:23.261Z,3.90
2022-09-20T07:24:23.270Z,3.80
2022-09-20T07:25:23.236Z,4.10
2022-09-20T07:26:23.226Z,4.20
2022-09-20T07:27:26.360Z,3.90
2022-09-20T07:28:24.225Z,4.20
2022-09-20T07:29:23.194Z,4.40
2022-09-20T07:30:23.321Z,3.80
2022-09-20T07:31:23.280Z,4.70
2022-09-20T07:32:23.164Z,4.30
2022-09-20T07:33:23.148Z,4.30
2022-09-20T07:34:23.141Z,3.90
2022-09-20T07:35:23.127Z,4.00
2022-09-20T07:36:23.138Z,4.30
2022-09-20T07:37:23.120Z,5.00
2022-09-20T07:38:23.095Z,4.60
2022-09-20T07:39:23.079Z,4.30
2022-09-20T07:40:23.129Z,4.50
2022-09-20T07:41:23.185Z,4.60
2022-09-20T07:42:23.097Z,4.20
2022-09-20T07:43:23.032Z,4.30
2022-09-20T07:44:23.030Z,4.30
2022-09-20T07:45:23.016Z,4.50
2022-09-20T07:46:23.019Z,4.50
2022-09-20T07:47:22.988Z,4.60
2022-09-20T07:48:23.002Z,4.50
2022-09-20T07:49:22.988Z,4.50
2022-09-20T07:50:23.057Z,5.00
2022-09-20T07:51:22.944Z,4.80
2022-09-20T07:52:22.954Z,5.10
2022-09-20T07:53:22.920Z,4.30
2022-09-20T07:54:22.910Z,3.90
2022-09-20T07:55:22.928Z,3.90
2022-09-20T07:56:22.888Z,4.40
2022-09-20T07:57:22.874Z,3.70
2022-09-20T07:58:22.865Z,3.90
2022-09-20T07:59:22.862Z,3.80
2022-09-20T08:00:22.843Z,3.90
2022-09-20T08:01:23.139Z,4.40
2022-09-20T08:02:22.894Z,4.10
2022-09-20T08:03:22.807Z,4.40
2022-09-20T08:04:22.820Z,4.40
2022-09-20T08:05:22.805Z,4.10
2022-09-20T08:06:22.777Z,4.20
2022-09-20T08:07:22.765Z,3.80
2022-09-20T08:08:22.813Z,4.10
2022-09-20T08:09:22.765Z,4.20
2022-09-20T08:10:22.732Z,4.30
2022-09-20T08:11:22.720Z,3.50
2022-09-20T08:14:23.824Z,3.70
2022-09-20T08:15:22.674Z,3.80
2022-09-20T08:16:22.733Z,3.70
2022-09-20T08:17:22.654Z,3.60
2022-09-20T08:18:22.658Z,3.20
2022-09-20T08:19:22.636Z,3.50
2022-09-20T08:20:22.641Z,3.70
2022-09-20T08:21:22.605Z,3.40
2022-09-20T08:22:22.617Z,3.20
2022-09-20T08:23:24.091Z,3.50
2022-09-20T08:24:22.577Z,4.10
2022-09-20T08:25:22.561Z,3.10
2022-09-20T08:26:22.553Z,3.40
2022-09-20T08:27:22.563Z,3.80
2022-09-20T08:28:22.527Z,3.10
2022-09-20T08:29:22.516Z,3.20
2022-09-20T08:30:27.445Z,3.10
2022-09-20T08:31:23.593Z,3.20
2022-09-20T08:32:22.502Z,3.30
2022-09-20T08:33:22.494Z,3.50
2022-09-20T08:34:22.494Z,3.60
2022-09-20T08:35:22.452Z,3.50
2022-09-20T08:36:22.438Z,3.40
2022-09-20T08:37:22.425Z,3.00
2022-09-20T08:40:23.445Z,3.80
2022-09-20T08:41:22.383Z,4.00
2022-09-20T08:42:22.370Z,3.80
2022-09-20T08:43:22.711Z,3.70
2022-09-20T08:44:22.376Z,3.70
2022-09-20T08:45:23.363Z,3.50
2022-09-20T08:46:23.646Z,3.50
2022-09-20T08:47:22.318Z,3.70
2022-09-20T08:48:22.303Z,3.70
2022-09-20T08:49:22.299Z,3.90
2022-09-20T08:50:22.316Z,4.50
2022-09-20T08:51:23.405Z,4.00
2022-09-20T08:52:22.255Z,3.90
2022-09-20T08:53:22.247Z,4.10
2022-09-20T08:54:22.254Z,4.30
2022-09-20T08:55:22.254Z,4.10
2022-09-20T08:56:22.210Z,4.20
2022-09-20T08:57:22.200Z,4.30
2022-09-20T08:58:22.189Z,3.70
2022-09-20T08:59:22.181Z,4.20
2022-09-20T09:00:22.188Z,3.50
2022-09-20T09:01:22.264Z,4.10
2022-09-20T09:02:22.179Z,4.20
2022-09-20T09:03:22.135Z,3.80
2022-09-20T09:04:22.142Z,4.20
2022-09-20T09:05:22.110Z,3.80
2022-09-20T09:06:22.115Z,4.50
2022-09-20T09:07:22.088Z,4.00
2022-09-20T09:08:22.078Z,3.90
2022-09-20T09:09:22.088Z,4.40
2022-09-20T09:10:22.052Z,4.90
2022-09-20T09:11:22.042Z,3.90
2022-09-20T09:12:22.027Z,4.00
2022-09-20T09:13:22.017Z,4.40
2022-09-20T09:14:22.024Z,4.10
2022-09-20T09:15:21.995Z,4.40
2022-09-20T09:16:23.297Z,4.20
2022-09-20T09:17:27.471Z,4.10
2022-09-20T09:18:22.981Z,3.80
2022-09-20T09:19:21.970Z,4.00
2022-09-20T09:20:21.937Z,3.80
2022-09-20T09:21:21.950Z,3.80
2022-09-20T09:22:21.961Z,4.50
2022-09-20T09:23:21.906Z,4.40
2022-09-20T09:24:21.894Z,4.30
2022-09-20T09:25:21.887Z,3.90
2022-09-20T09:26:21.895Z,4.20
2022-09-20T09:27:21.858Z,4.80
2022-09-20T09:28:21.846Z,4.40
2022-09-20T09:29:21.836Z,4.20
2022-09-20T09:30:21.834Z,4.60
2022-09-20T09:31:21.863Z,4.20
2022-09-20T09:32:21.821Z,3.60
2022-09-20T09:33:21.793Z,3.60
2022-09-20T09:34:21.782Z,3.60
2022-09-20T09:35:21.772Z,4.00
2022-09-20T09:36:21.754Z,3.80
2022-09-20T09:37:26.328Z,4.00
2022-09-20T09:38:22.749Z,3.80
2022-09-20T09:39:21.725Z,3.60
2022-09-20T09:40:21.782Z,3.60
2022-09-20T09:41:21.728Z,3.80
2022-09-20T09:42:21.710Z,4.00
2022-09-20T09:43:21.676Z,4.10
2022-09-20T09:44:21.666Z,4.00
2022-09-20T09:45:21.657Z,4.40
2022-09-20T09:46:21.721Z,3.90
2022-09-20T09:47:21.665Z,4.10
2022-09-20T09:48:21.661Z,3.90
2022-09-20T09:49:21.608Z,4.20
2022-09-20T09:50:21.596Z,3.90
2022-09-20T09:51:21.596Z,4.10
2022-09-20T09:52:21.573Z,4.00
2022-09-20T09:53:21.592Z,4.20
2022-09-20T09:54:21.588Z,4.80
2022-09-20T09:55:21.565Z,4.30
2022-09-20T09:56:21.529Z,4.90
2022-09-20T09:57:21.520Z,4.90
2022-09-20T09:58:21.506Z,4.80
2022-09-20T09:59:21.517Z,4.50
2022-09-20T10:00:22.624Z,4.30
2022-09-20T10:01:21.525Z,4.80
2022-09-20T10:02:21.528Z,4.20
2022-09-20T10:03:21.470Z,4.10
2022-09-20T10:04:21.441Z,4.40
2022-09-20T10:05:21.454Z,4.20
2022-09-20T10:06:21.419Z,3.80
2022-09-20T10:07:21.414Z,3.80
2022-09-20T10:08:21.391Z,4.00
2022-09-20T10:09:21.384Z,4.40
2022-09-20T10:10:21.385Z,4.50
2022-09-20T10:11:21.386Z,4.30
2022-09-20T10:12:21.350Z,3.90
2022-09-20T10:13:21.342Z,4.00
2022-09-20T10:14:21.326Z,4.10
2022-09-20T10:15:21.317Z,4.00
2022-09-20T10:16:21.377Z,3.50
2022-09-20T10:17:21.291Z,3.50
2022-09-20T10:18:21.281Z,3.50
2022-09-20T10:19:22.776Z,3.60
2022-09-20T10:20:21.281Z,3.90
2022-09-20T10:21:21.271Z,3.00
2022-09-20T10:22:21.254Z,3.10
2022-09-20T10:23:45.176Z,3.50
2022-09-20T10:24:22.209Z,3.00
2022-09-20T10:25:21.297Z,2.40
2022-09-20T10:26:21.223Z,2.70
2022-09-20T10:27:21.184Z,2.40
2022-09-20T10:28:21.169Z,2.80
2022-09-20T10:29:21.156Z,2.90
2022-09-20T10:30:21.147Z,2.70
2022-09-20T10:31:25.041Z,2.50
2022-09-20T10:32:21.123Z,2.50
2022-09-20T10:33:21.131Z,2.20
2022-09-20T10:34:21.098Z,2.00
2022-09-20T10:35:21.094Z,2.40
2022-09-20T10:36:21.114Z,2.00
2022-09-20T10:37:21.067Z,2.50
2022-09-20T10:38:21.054Z,2.20
2022-09-20T10:39:21.044Z,2.50
2022-09-20T10:40:21.104Z,2.50
2022-09-20T10:41:21.023Z,2.50
2022-09-20T10:42:21.026Z,1.90
2022-09-20T10:43:21.000Z,2.40
2022-09-20T10:44:20.984Z,2.30
2022-09-20T10:45:50.837Z,2.60
2022-09-20T10:46:31.760Z,2.60
2022-09-20T10:47:22.008Z,2.70
2022-09-20T10:48:20.947Z,2.50
2022-09-20T10:49:20.957Z,2.80
2022-09-20T10:50:20.920Z,2.60
2022-09-20T10:51:20.929Z,2.70
2022-09-20T10:52:20.897Z,2.20
2022-09-20T10:53:20.999Z,2.70
2022-09-20T10:54:20.876Z,3.80
2022-09-20T10:55:20.865Z,4.30
2022-09-20T10:56:20.882Z,3.90
2022-09-20T10:57:20.846Z,4.10
2022-09-20T10:58:20.849Z,2.90
2022-09-20T10:59:20.823Z,2.80
2022-09-20T11:00:20.808Z,3.20
2022-09-20T11:01:20.881Z,3.00
2022-09-20T11:02:20.817Z,3.30
2022-09-20T11:03:20.773Z,3.20
2022-09-20T11:04:20.760Z,3.10
2022-09-20T11:05:20.814Z,3.00
2022-09-20T11:06:20.735Z,2.30
2022-09-20T11:07:20.752Z,2.80
2022-09-20T11:08:20.714Z,2.80
2022-09-20T11:09:20.706Z,2.90
2022-09-20T11:10:20.695Z,3.10
2022-09-20T11:11:20.682Z,2.90
2022-09-20T11:12:20.822Z,3.00
2022-09-20T11:13:20.660Z,2.80
2022-09-20T11:14:20.769Z,3.20
2022-09-20T11:15:20.637Z,3.30
2022-09-20T11:16:20.655Z,2.90
2022-09-20T11:17:20.617Z,2.50
2022-09-20T11:18:20.648Z,3.00
2022-09-20T11:19:20.593Z,2.20
2022-09-20T11:20:20.578Z,1.90
2022-09-20T11:21:20.584Z,1.90
2022-09-20T11:22:20.564Z,1.70
2022-09-20T11:23:20.856Z,1.10
2022-09-20T11:24:20.535Z,1.20
2022-09-20T11:25:23.080Z,1.20
2022-09-20T11:26:20.515Z,1.20
2022-09-20T11:27:20.501Z,1.20
2022-09-20T11:28:20.511Z,1.30
2022-09-20T11:29:20.479Z,1.40
2022-09-20T11:30:20.509Z,1.10
2022-09-20T11:31:20.693Z,1.60
2022-09-20T11:32:20.446Z,1.30
2022-09-20T11:33:20.441Z,1.40
2022-09-20T11:34:20.467Z,1.40
2022-09-20T11:35:20.431Z,1.40
2022-09-20T11:36:20.420Z,1.30
2022-09-20T11:37:20.389Z,1.30
2022-09-20T11:38:20.377Z,1.30
2022-09-20T11:39:20.366Z,1.70
2022-09-20T11:40:20.410Z,1.50
2022-09-20T11:41:20.347Z,1.20
2022-09-20T11:42:20.332Z,1.10
2022-09-20T11:43:20.322Z,1.20
2022-09-20T11:44:20.306Z,1.20
2022-09-20T11:45:21.602Z,0.90
2022-09-20T11:46:20.364Z,1.00
2022-09-20T11:47:42.828Z,1.20
2022-09-20T11:48:21.261Z,1.10
2022-09-20T11:49:20.255Z,1.10
2022-09-20T11:50:20.269Z,1.20
2022-09-20T11:51:20.228Z,1.00
2022-09-20T11:52:20.218Z,0.90
2022-09-20T11:53:20.246Z,1.10
2022-09-20T11:54:20.194Z,1.10
2022-09-20T11:55:20.217Z,1.00
2022-09-20T11:56:20.194Z,1.00
2022-09-20T11:57:20.225Z,1.10
2022-09-20T11:58:20.147Z,1.20
2022-09-20T11:59:20.304Z,1.00
2022-09-20T12:00:20.129Z,1.10
2022-09-20T12:01:20.129Z,1.00
2022-09-20T12:02:20.318Z,1.10
2022-09-20T12:03:20.244Z,1.20
2022-09-20T12:04:32.441Z,1.20
2022-09-20T12:05:21.092Z,1.00
2022-09-20T12:06:20.079Z,1.10
2022-09-20T12:07:20.095Z,1.40
2022-09-20T12:08:20.035Z,1.00
2022-09-20T12:09:20.035Z,1.20
2022-09-20T12:10:20.019Z,1.00
2022-09-20T12:11:20.050Z,1.70
2022-09-20T12:12:19.991Z,1.90
2022-09-20T12:13:19.987Z,2.60
2022-09-20T12:14:19.966Z,1.80
2022-09-20T12:15:19.959Z,1.50
2022-09-20T12:16:20.008Z,1.50
2022-09-20T12:17:19.935Z,1.40
2022-09-20T12:18:19.938Z,1.10
2022-09-20T12:19:19.911Z,1.20
2022-09-20T12:20:19.902Z,1.10
2022-09-20T12:21:19.914Z,1.20
2022-09-20T12:22:19.883Z,1.20
2022-09-20T12:23:19.872Z,1.10
2022-09-20T12:24:19.854Z,1.10
2022-09-20T12:25:19.846Z,0.80
2022-09-20T12:26:19.830Z,1.00
2022-09-20T12:27:19.847Z,0.90
2022-09-20T12:28:19.836Z,0.90
2022-09-20T12:29:19.800Z,0.80
2022-09-20T12:30:19.789Z,1.00
2022-09-20T12:31:19.894Z,0.80
2022-09-20T12:32:19.764Z,1.10
2022-09-20T12:33:19.788Z,1.00
2022-09-20T12:34:19.758Z,1.00
2022-09-20T12:35:19.735Z,0.70
2022-09-20T12:36:19.742Z,0.80
2022-09-20T12:37:19.711Z,0.90
2022-09-20T12:38:19.717Z,0.80
2022-09-20T12:39:24.177Z,0.80
2022-09-20T12:40:20.708Z,0.80
2022-09-20T12:41:27.773Z,0.80
2022-09-20T12:42:20.649Z,0.80
2022-09-20T12:43:19.663Z,1.00
2022-09-20T12:44:19.631Z,1.20
2022-09-20T12:45:19.644Z,0.80
2022-09-20T12:46:19.664Z,0.90
2022-09-20T12:47:19.594Z,0.90
2022-09-20T12:48:19.588Z,1.00
2022-09-20T12:49:19.591Z,1.00
2022-09-20T12:50:19.578Z,0.80
2022-09-20T12:51:19.572Z,0.90
2022-09-20T12:52:19.536Z,1.00
2022-09-20T12:53:19.523Z,0.90
2022-09-20T12:54:19.515Z,0.80
2022-09-20T12:55:19.511Z,1.30
2022-09-20T12:56:19.518Z,1.00
2022-09-20T12:57:19.479Z,0.90
2022-09-20T12:58:19.473Z,1.00
2022-09-20T12:59:19.457Z,0.90
2022-09-20T13:00:19.454Z,0.90
2022-09-20T13:01:19.504Z,0.90
2022-09-20T13:02:19.475Z,0.90
2022-09-20T13:03:19.433Z,1.00
2022-09-20T13:04:19.404Z,1.20
2022-09-20T13:05:19.410Z,0.80
2022-09-20T13:06:19.395Z,0.90
2022-09-20T13:07:19.366Z,0.90
2022-09-20T13:08:19.382Z,0.90
2022-09-20T13:09:19.345Z,0.90
2022-09-20T13:10:19.355Z,1.00
2022-09-20T13:11:19.323Z,1.00
2022-09-20T13:12:19.311Z,0.90
2022-09-20T13:13:19.326Z,0.90
2022-09-20T13:14:19.292Z,1.00
2022-09-20T13:15:19.275Z,0.80
2022-09-20T13:16:19.300Z,0.90
2022-09-20T13:17:19.262Z,0.90
2022-09-20T13:18:19.267Z,0.90
2022-09-20T13:19:19.231Z,0.90
2022-09-20T13:20:19.222Z,1.10
2022-09-20T13:21:19.213Z,0.80
2022-09-20T13:22:19.241Z,0.70